sensor_id;sensor_type;location;lat;lon;timestamp;P1;durP1;ratioP1;P2;durP2;ratioP2
33672;SDS011;20011;51.510;9.942;2023-06-26T00:01:31;9.50;;;6.75;;
33672;SDS011;20011;51.510;9.942;2023-06-26T00:03:59;11.45;;;7.35;;
33672;SDS011;20011;51.510;9.942;2023-06-26T00:06:27;10.70;;;7.10;;
33672;SDS011;20011;51.510;9.942;2023-06-26T00:08:54;20.63;;;7.13;;
33672;SDS011;20011;51.510;9.942;2023-06-26T00:11:22;11.05;;;6.78;;
33672;SDS011;20011;51.510;9.942;2023-06-26T00:13:49;9.65;;;6.78;;
33672;SDS011;20011;51.510;9.942;2023-06-26T00:16:17;12.52;;;7.05;;
33672;SDS011;20011;51.510;9.942;2023-06-26T00:18:44;10.68;;;6.80;;
33672;SDS011;20011;51.510;9.942;2023-06-26T00:21:10;7.60;;;5.82;;
33672;SDS011;20011;51.510;9.942;2023-06-26T00:23:37;9.70;;;6.28;;
33672;SDS011;20011;51.510;9.942;2023-06-26T00:26:06;10.48;;;6.32;;
33672;SDS011;20011;51.510;9.942;2023-06-26T00:28:33;10.23;;;6.13;;
33672;SDS011;20011;51.510;9.942;2023-06-26T00:31:00;6.93;;;5.93;;
33672;SDS011;20011;51.510;9.942;2023-06-26T00:33:28;7.78;;;6.35;;
33672;SDS011;20011;51.510;9.942;2023-06-26T00:35:56;7.70;;;6.13;;
33672;SDS011;20011;51.510;9.942;2023-06-26T00:38:23;9.40;;;6.55;;
33672;SDS011;20011;51.510;9.942;2023-06-26T00:40:50;7.85;;;6.05;;
33672;SDS011;20011;51.510;9.942;2023-06-26T00:43:21;8.93;;;5.35;;
33672;SDS011;20011;51.510;9.942;2023-06-26T00:45:48;7.15;;;5.93;;
33672;SDS011;20011;51.510;9.942;2023-06-26T00:48:15;7.25;;;6.10;;
33672;SDS011;20011;51.510;9.942;2023-06-26T00:50:43;10.45;;;6.15;;
33672;SDS011;20011;51.510;9.942;2023-06-26T00:53:11;13.80;;;6.50;;
33672;SDS011;20011;51.510;9.942;2023-06-26T00:55:38;7.90;;;6.25;;
33672;SDS011;20011;51.510;9.942;2023-06-26T00:58:05;6.35;;;5.70;;
33672;SDS011;20011;51.510;9.942;2023-06-26T01:00:32;11.50;;;6.55;;
33672;SDS011;20011;51.510;9.942;2023-06-26T01:03:00;8.18;;;6.22;;
33672;SDS011;20011;51.510;9.942;2023-06-26T01:05:27;7.70;;;6.43;;
33672;SDS011;20011;51.510;9.942;2023-06-26T01:07:56;10.15;;;6.20;;
33672;SDS011;20011;51.510;9.942;2023-06-26T01:10:25;9.40;;;6.27;;
33672;SDS011;20011;51.510;9.942;2023-06-26T01:12:54;9.32;;;6.82;;
33672;SDS011;20011;51.510;9.942;2023-06-26T01:15:21;7.85;;;6.45;;
33672;SDS011;20011;51.510;9.942;2023-06-26T01:17:50;9.07;;;6.25;;
33672;SDS011;20011;51.510;9.942;2023-06-26T01:20:18;12.27;;;7.22;;
33672;SDS011;20011;51.510;9.942;2023-06-26T01:23:03;12.10;;;7.43;;
33672;SDS011;20011;51.510;9.942;2023-06-26T01:28:46;9.27;;;6.03;;
33672;SDS011;20011;51.510;9.942;2023-06-26T01:31:15;10.93;;;6.10;;
33672;SDS011;20011;51.510;9.942;2023-06-26T01:33:43;12.32;;;6.72;;
33672;SDS011;20011;51.510;9.942;2023-06-26T01:36:11;12.43;;;6.90;;
33672;SDS011;20011;51.510;9.942;2023-06-26T01:38:38;12.07;;;6.03;;
33672;SDS011;20011;51.510;9.942;2023-06-26T01:41:05;12.60;;;6.40;;
33672;SDS011;20011;51.510;9.942;2023-06-26T01:58:06;9.10;;;6.32;;
33672;SDS011;20011;51.510;9.942;2023-06-26T02:00:34;6.60;;;5.13;;
33672;SDS011;20011;51.510;9.942;2023-06-26T02:03:03;7.18;;;5.95;;
33672;SDS011;20011;51.510;9.942;2023-06-26T02:05:32;9.10;;;5.78;;
33672;SDS011;20011;51.510;9.942;2023-06-26T02:07:59;20.13;;;6.75;;
33672;SDS011;20011;51.510;9.942;2023-06-26T02:10:29;13.73;;;5.65;;
33672;SDS011;20011;51.510;9.942;2023-06-26T02:12:57;10.23;;;5.70;;
33672;SDS011;20011;51.510;9.942;2023-06-26T02:15:24;11.15;;;5.93;;
33672;SDS011;20011;51.510;9.942;2023-06-26T02:17:52;9.10;;;6.40;;
33672;SDS011;20011;51.510;9.942;2023-06-26T02:20:19;7.65;;;6.40;;
33672;SDS011;20011;51.510;9.942;2023-06-26T02:22:46;9.18;;;5.63;;
33672;SDS011;20011;51.510;9.942;2023-06-26T02:25:13;9.55;;;5.45;;
33672;SDS011;20011;51.510;9.942;2023-06-26T02:27:40;7.65;;;6.13;;
33672;SDS011;20011;51.510;9.942;2023-06-26T02:30:09;16.10;;;5.88;;
33672;SDS011;20011;51.510;9.942;2023-06-26T02:32:36;13.07;;;5.85;;
33672;SDS011;20011;51.510;9.942;2023-06-26T02:35:03;8.07;;;5.85;;
33672;SDS011;20011;51.510;9.942;2023-06-26T02:37:30;8.82;;;6.15;;
33672;SDS011;20011;51.510;9.942;2023-06-26T02:39:58;13.82;;;6.13;;
33672;SDS011;20011;51.510;9.942;2023-06-26T02:42:26;16.35;;;6.40;;
33672;SDS011;20011;51.510;9.942;2023-06-26T02:44:53;9.48;;;6.28;;
33672;SDS011;20011;51.510;9.942;2023-06-26T02:47:20;7.93;;;6.43;;
33672;SDS011;20011;51.510;9.942;2023-06-26T02:49:47;11.48;;;5.97;;
33672;SDS011;20011;51.510;9.942;2023-06-26T02:52:14;9.43;;;5.97;;
33672;SDS011;20011;51.510;9.942;2023-06-26T02:54:41;12.20;;;6.10;;
33672;SDS011;20011;51.510;9.942;2023-06-26T02:57:09;26.42;;;6.65;;
33672;SDS011;20011;51.510;9.942;2023-06-26T02:59:36;10.98;;;6.75;;
33672;SDS011;20011;51.510;9.942;2023-06-26T03:02:03;11.95;;;5.88;;
33672;SDS011;20011;51.510;9.942;2023-06-26T03:04:38;10.77;;;6.45;;
33672;SDS011;20011;51.510;9.942;2023-06-26T03:07:09;8.60;;;5.90;;
33672;SDS011;20011;51.510;9.942;2023-06-26T03:09:38;7.78;;;6.30;;
33672;SDS011;20011;51.510;9.942;2023-06-26T03:12:05;8.20;;;6.00;;
33672;SDS011;20011;51.510;9.942;2023-06-26T03:14:33;17.27;;;6.45;;
33672;SDS011;20011;51.510;9.942;2023-06-26T03:17:00;15.48;;;6.70;;
33672;SDS011;20011;51.510;9.942;2023-06-26T03:19:31;9.18;;;5.65;;
33672;SDS011;20011;51.510;9.942;2023-06-26T03:22:24;7.85;;;5.97;;
33672;SDS011;20011;51.510;9.942;2023-06-26T03:24:51;13.13;;;6.03;;
33672;SDS011;20011;51.510;9.942;2023-06-26T03:27:18;11.30;;;6.50;;
33672;SDS011;20011;51.510;9.942;2023-06-26T03:29:47;11.60;;;6.85;;
33672;SDS011;20011;51.510;9.942;2023-06-26T03:32:15;19.83;;;6.88;;
33672;SDS011;20011;51.510;9.942;2023-06-26T03:34:43;10.25;;;6.07;;
33672;SDS011;20011;51.510;9.942;2023-06-26T03:37:10;8.40;;;5.53;;
33672;SDS011;20011;51.510;9.942;2023-06-26T03:39:37;10.25;;;5.78;;
33672;SDS011;20011;51.510;9.942;2023-06-26T03:42:04;12.02;;;6.20;;
33672;SDS011;20011;51.510;9.942;2023-06-26T03:44:32;11.48;;;5.93;;
33672;SDS011;20011;51.510;9.942;2023-06-26T03:46:59;11.60;;;6.15;;
33672;SDS011;20011;51.510;9.942;2023-06-26T03:49:26;19.08;;;6.03;;
33672;SDS011;20011;51.510;9.942;2023-06-26T03:51:53;9.80;;;6.40;;
33672;SDS011;20011;51.510;9.942;2023-06-26T03:54:21;14.27;;;5.95;;
33672;SDS011;20011;51.510;9.942;2023-06-26T03:56:48;8.75;;;5.43;;
33672;SDS011;20011;51.510;9.942;2023-06-26T03:59:15;10.65;;;6.22;;
33672;SDS011;20011;51.510;9.942;2023-06-26T04:01:42;10.07;;;6.05;;
33672;SDS011;20011;51.510;9.942;2023-06-26T04:04:09;10.30;;;5.40;;
33672;SDS011;20011;51.510;9.942;2023-06-26T04:06:36;7.90;;;5.72;;
33672;SDS011;20011;51.510;9.942;2023-06-26T04:09:03;12.70;;;5.90;;
33672;SDS011;20011;51.510;9.942;2023-06-26T04:11:31;8.65;;;5.30;;
33672;SDS011;20011;51.510;9.942;2023-06-26T04:13:58;11.88;;;5.75;;
33672;SDS011;20011;51.510;9.942;2023-06-26T04:16:25;9.90;;;5.13;;
33672;SDS011;20011;51.510;9.942;2023-06-26T04:18:52;6.68;;;5.20;;
33672;SDS011;20011;51.510;9.942;2023-06-26T04:21:22;10.43;;;5.57;;
33672;SDS011;20011;51.510;9.942;2023-06-26T04:23:51;15.55;;;6.25;;
33672;SDS011;20011;51.510;9.942;2023-06-26T04:26:18;15.30;;;5.72;;
33672;SDS011;20011;51.510;9.942;2023-06-26T04:28:45;9.98;;;6.25;;
33672;SDS011;20011;51.510;9.942;2023-06-26T04:31:12;8.85;;;6.05;;
33672;SDS011;20011;51.510;9.942;2023-06-26T04:33:39;9.90;;;6.13;;
33672;SDS011;20011;51.510;9.942;2023-06-26T04:36:08;13.63;;;5.82;;
33672;SDS011;20011;51.510;9.942;2023-06-26T04:38:36;9.60;;;5.75;;
33672;SDS011;20011;51.510;9.942;2023-06-26T04:41:02;12.77;;;6.88;;
33672;SDS011;20011;51.510;9.942;2023-06-26T04:43:30;17.65;;;6.72;;
33672;SDS011;20011;51.510;9.942;2023-06-26T04:45:57;13.25;;;5.88;;
33672;SDS011;20011;51.510;9.942;2023-06-26T04:48:24;12.40;;;6.13;;
33672;SDS011;20011;51.510;9.942;2023-06-26T04:50:54;9.38;;;6.70;;
33672;SDS011;20011;51.510;9.942;2023-06-26T04:53:22;8.32;;;5.45;;
33672;SDS011;20011;51.510;9.942;2023-06-26T04:55:50;10.80;;;5.88;;
33672;SDS011;20011;51.510;9.942;2023-06-26T04:58:17;11.63;;;5.70;;
33672;SDS011;20011;51.510;9.942;2023-06-26T05:00:45;11.88;;;5.20;;
33672;SDS011;20011;51.510;9.942;2023-06-26T05:03:12;7.43;;;5.57;;
33672;SDS011;20011;51.510;9.942;2023-06-26T05:05:41;11.48;;;5.75;;
33672;SDS011;20011;51.510;9.942;2023-06-26T05:08:24;11.40;;;5.10;;
33672;SDS011;20011;51.510;9.942;2023-06-26T05:10:52;14.15;;;6.10;;
33672;SDS011;20011;51.510;9.942;2023-06-26T05:13:24;9.25;;;5.80;;
33672;SDS011;20011;51.510;9.942;2023-06-26T05:15:52;9.48;;;6.07;;
33672;SDS011;20011;51.510;9.942;2023-06-26T05:18:19;10.40;;;5.20;;
33672;SDS011;20011;51.510;9.942;2023-06-26T05:20:47;11.90;;;6.18;;
33672;SDS011;20011;51.510;9.942;2023-06-26T05:23:14;11.63;;;6.00;;
33672;SDS011;20011;51.510;9.942;2023-06-26T05:25:43;13.27;;;7.20;;
33672;SDS011;20011;51.510;9.942;2023-06-26T05:28:10;9.75;;;6.65;;
33672;SDS011;20011;51.510;9.942;2023-06-26T05:30:38;7.28;;;5.75;;
33672;SDS011;20011;51.510;9.942;2023-06-26T05:33:06;9.18;;;6.53;;
33672;SDS011;20011;51.510;9.942;2023-06-26T05:35:37;7.25;;;5.65;;
33672;SDS011;20011;51.510;9.942;2023-06-26T05:38:04;10.07;;;6.55;;
33672;SDS011;20011;51.510;9.942;2023-06-26T05:40:31;11.80;;;6.20;;
33672;SDS011;20011;51.510;9.942;2023-06-26T05:43:00;11.90;;;6.15;;
33672;SDS011;20011;51.510;9.942;2023-06-26T05:45:27;9.75;;;6.60;;
33672;SDS011;20011;51.510;9.942;2023-06-26T05:47:54;12.00;;;5.90;;
33672;SDS011;20011;51.510;9.942;2023-06-26T05:50:22;10.07;;;6.70;;
33672;SDS011;20011;51.510;9.942;2023-06-26T05:52:49;11.95;;;7.00;;
33672;SDS011;20011;51.510;9.942;2023-06-26T05:55:16;10.10;;;6.75;;
33672;SDS011;20011;51.510;9.942;2023-06-26T05:57:44;8.68;;;6.15;;
33672;SDS011;20011;51.510;9.942;2023-06-26T06:00:12;8.63;;;7.10;;
33672;SDS011;20011;51.510;9.942;2023-06-26T06:02:41;11.75;;;7.35;;
33672;SDS011;20011;51.510;9.942;2023-06-26T06:05:09;13.70;;;7.32;;
33672;SDS011;20011;51.510;9.942;2023-06-26T06:07:36;8.52;;;7.00;;
33672;SDS011;20011;51.510;9.942;2023-06-26T06:10:03;7.65;;;6.88;;
33672;SDS011;20011;51.510;9.942;2023-06-26T06:12:31;9.23;;;6.40;;
33672;SDS011;20011;51.510;9.942;2023-06-26T06:14:58;9.95;;;6.82;;
33672;SDS011;20011;51.510;9.942;2023-06-26T06:17:25;7.72;;;6.70;;
33672;SDS011;20011;51.510;9.942;2023-06-26T06:19:52;9.60;;;6.85;;
33672;SDS011;20011;51.510;9.942;2023-06-26T06:22:19;8.95;;;6.35;;
33672;SDS011;20011;51.510;9.942;2023-06-26T06:24:48;14.43;;;6.65;;
33672;SDS011;20011;51.510;9.942;2023-06-26T06:27:17;11.15;;;7.05;;
33672;SDS011;20011;51.510;9.942;2023-06-26T06:29:44;7.43;;;5.90;;
33672;SDS011;20011;51.510;9.942;2023-06-26T06:32:11;10.80;;;6.00;;
33672;SDS011;20011;51.510;9.942;2023-06-26T06:34:38;6.93;;;5.60;;
33672;SDS011;20011;51.510;9.942;2023-06-26T06:37:05;8.02;;;6.20;;
33672;SDS011;20011;51.510;9.942;2023-06-26T06:39:32;9.10;;;7.03;;
33672;SDS011;20011;51.510;9.942;2023-06-26T06:41:59;7.85;;;6.35;;
33672;SDS011;20011;51.510;9.942;2023-06-26T06:44:26;8.52;;;6.50;;
33672;SDS011;20011;51.510;9.942;2023-06-26T06:46:53;7.45;;;5.90;;
33672;SDS011;20011;51.510;9.942;2023-06-26T06:49:20;9.60;;;6.55;;
33672;SDS011;20011;51.510;9.942;2023-06-26T06:51:47;7.32;;;6.30;;
33672;SDS011;20011;51.510;9.942;2023-06-26T06:54:15;9.55;;;5.28;;
33672;SDS011;20011;51.510;9.942;2023-06-26T06:56:43;8.35;;;6.10;;
33672;SDS011;20011;51.510;9.942;2023-06-26T06:59:10;6.85;;;5.18;;
33672;SDS011;20011;51.510;9.942;2023-06-26T07:01:36;5.70;;;4.97;;
33672;SDS011;20011;51.510;9.942;2023-06-26T07:04:03;5.65;;;4.90;;
33672;SDS011;20011;51.510;9.942;2023-06-26T07:06:30;5.43;;;4.65;;
33672;SDS011;20011;51.510;9.942;2023-06-26T07:08:57;5.65;;;4.82;;
33672;SDS011;20011;51.510;9.942;2023-06-26T07:11:24;7.20;;;5.50;;
33672;SDS011;20011;51.510;9.942;2023-06-26T07:13:51;6.78;;;4.90;;
33672;SDS011;20011;51.510;9.942;2023-06-26T07:16:18;6.78;;;4.80;;
33672;SDS011;20011;51.510;9.942;2023-06-26T07:18:45;5.68;;;4.80;;
33672;SDS011;20011;51.510;9.942;2023-06-26T07:21:12;4.60;;;4.10;;
33672;SDS011;20011;51.510;9.942;2023-06-26T07:23:39;5.53;;;4.95;;
33672;SDS011;20011;51.510;9.942;2023-06-26T07:26:06;6.05;;;5.32;;
33672;SDS011;20011;51.510;9.942;2023-06-26T07:28:33;5.57;;;4.97;;
33672;SDS011;20011;51.510;9.942;2023-06-26T07:31:00;4.93;;;4.43;;
33672;SDS011;20011;51.510;9.942;2023-06-26T07:33:27;5.75;;;4.88;;
33672;SDS011;20011;51.510;9.942;2023-06-26T07:35:54;6.20;;;4.88;;
33672;SDS011;20011;51.510;9.942;2023-06-26T07:38:21;5.68;;;4.60;;
33672;SDS011;20011;51.510;9.942;2023-06-26T07:40:48;5.78;;;4.53;;
33672;SDS011;20011;51.510;9.942;2023-06-26T07:43:15;5.20;;;4.70;;
33672;SDS011;20011;51.510;9.942;2023-06-26T07:45:42;7.80;;;4.35;;
33672;SDS011;20011;51.510;9.942;2023-06-26T07:48:09;5.68;;;4.80;;
33672;SDS011;20011;51.510;9.942;2023-06-26T07:50:36;6.55;;;4.18;;
33672;SDS011;20011;51.510;9.942;2023-06-26T07:53:04;4.72;;;4.15;;
33672;SDS011;20011;51.510;9.942;2023-06-26T07:55:32;5.35;;;4.38;;
33672;SDS011;20011;51.510;9.942;2023-06-26T07:57:59;8.55;;;4.53;;
33672;SDS011;20011;51.510;9.942;2023-06-26T08:00:27;4.63;;;4.05;;
33672;SDS011;20011;51.510;9.942;2023-06-26T08:02:54;6.22;;;5.15;;
33672;SDS011;20011;51.510;9.942;2023-06-26T08:05:21;9.27;;;4.40;;
33672;SDS011;20011;51.510;9.942;2023-06-26T08:07:48;7.97;;;5.20;;
33672;SDS011;20011;51.510;9.942;2023-06-26T08:10:15;5.97;;;4.75;;
33672;SDS011;20011;51.510;9.942;2023-06-26T08:12:43;6.28;;;4.63;;
33672;SDS011;20011;51.510;9.942;2023-06-26T08:15:11;7.38;;;4.40;;
33672;SDS011;20011;51.510;9.942;2023-06-26T08:17:39;6.85;;;4.68;;
33672;SDS011;20011;51.510;9.942;2023-06-26T08:20:06;6.75;;;4.85;;
33672;SDS011;20011;51.510;9.942;2023-06-26T08:22:34;7.43;;;5.07;;
33672;SDS011;20011;51.510;9.942;2023-06-26T08:25:02;7.88;;;4.65;;
33672;SDS011;20011;51.510;9.942;2023-06-26T08:27:30;8.73;;;4.80;;
33672;SDS011;20011;51.510;9.942;2023-06-26T08:29:58;11.23;;;5.05;;
33672;SDS011;20011;51.510;9.942;2023-06-26T08:32:25;7.03;;;5.35;;
33672;SDS011;20011;51.510;9.942;2023-06-26T08:34:52;6.80;;;5.75;;
33672;SDS011;20011;51.510;9.942;2023-06-26T08:37:19;9.43;;;5.53;;
33672;SDS011;20011;51.510;9.942;2023-06-26T08:39:46;6.43;;;4.78;;
33672;SDS011;20011;51.510;9.942;2023-06-26T08:42:14;8.80;;;5.05;;
33672;SDS011;20011;51.510;9.942;2023-06-26T08:44:41;11.05;;;5.93;;
33672;SDS011;20011;51.510;9.942;2023-06-26T08:47:22;6.88;;;5.53;;
33672;SDS011;20011;51.510;9.942;2023-06-26T08:50:01;9.85;;;5.93;;
33672;SDS011;20011;51.510;9.942;2023-06-26T08:52:36;11.38;;;5.93;;
33672;SDS011;20011;51.510;9.942;2023-06-26T08:55:17;9.25;;;5.65;;
33672;SDS011;20011;51.510;9.942;2023-06-26T08:57:48;10.90;;;5.88;;
33672;SDS011;20011;51.510;9.942;2023-06-26T09:00:15;8.95;;;6.45;;
33672;SDS011;20011;51.510;9.942;2023-06-26T09:02:44;9.23;;;6.13;;
33672;SDS011;20011;51.510;9.942;2023-06-26T09:05:12;8.18;;;6.05;;
33672;SDS011;20011;51.510;9.942;2023-06-26T09:07:39;9.25;;;5.60;;
33672;SDS011;20011;51.510;9.942;2023-06-26T09:10:06;7.13;;;5.65;;
33672;SDS011;20011;51.510;9.942;2023-06-26T09:12:34;8.15;;;6.35;;
33672;SDS011;20011;51.510;9.942;2023-06-26T09:15:01;7.55;;;5.75;;
33672;SDS011;20011;51.510;9.942;2023-06-26T09:17:30;9.88;;;5.63;;
33672;SDS011;20011;51.510;9.942;2023-06-26T09:19:59;7.88;;;5.68;;
33672;SDS011;20011;51.510;9.942;2023-06-26T09:22:26;6.55;;;5.45;;
33672;SDS011;20011;51.510;9.942;2023-06-26T09:24:53;8.90;;;5.85;;
33672;SDS011;20011;51.510;9.942;2023-06-26T09:27:21;6.28;;;5.15;;
33672;SDS011;20011;51.510;9.942;2023-06-26T09:29:48;7.93;;;5.65;;
33672;SDS011;20011;51.510;9.942;2023-06-26T09:32:16;9.25;;;5.63;;
33672;SDS011;20011;51.510;9.942;2023-06-26T09:34:43;10.98;;;5.85;;
33672;SDS011;20011;51.510;9.942;2023-06-26T09:37:11;6.93;;;5.50;;
33672;SDS011;20011;51.510;9.942;2023-06-26T09:39:39;9.00;;;6.07;;
33672;SDS011;20011;51.510;9.942;2023-06-26T09:42:06;6.13;;;5.25;;
33672;SDS011;20011;51.510;9.942;2023-06-26T09:44:33;10.32;;;6.45;;
33672;SDS011;20011;51.510;9.942;2023-06-26T09:47:01;7.15;;;5.20;;
33672;SDS011;20011;51.510;9.942;2023-06-26T09:49:30;8.85;;;5.80;;
33672;SDS011;20011;51.510;9.942;2023-06-26T09:51:59;7.80;;;5.90;;
33672;SDS011;20011;51.510;9.942;2023-06-26T09:54:28;7.38;;;5.57;;
33672;SDS011;20011;51.510;9.942;2023-06-26T09:57:06;9.27;;;5.88;;
33672;SDS011;20011;51.510;9.942;2023-06-26T09:59:37;7.75;;;5.70;;
33672;SDS011;20011;51.510;9.942;2023-06-26T10:02:05;8.45;;;5.45;;
33672;SDS011;20011;51.510;9.942;2023-06-26T10:04:33;7.55;;;5.32;;
33672;SDS011;20011;51.510;9.942;2023-06-26T10:07:01;7.85;;;5.03;;
33672;SDS011;20011;51.510;9.942;2023-06-26T10:09:31;6.72;;;5.68;;
33672;SDS011;20011;51.510;9.942;2023-06-26T10:12:01;7.90;;;5.50;;
33672;SDS011;20011;51.510;9.942;2023-06-26T10:14:34;10.35;;;5.97;;
33672;SDS011;20011;51.510;9.942;2023-06-26T10:17:03;9.50;;;6.32;;
33672;SDS011;20011;51.510;9.942;2023-06-26T10:19:33;11.32;;;7.35;;
33672;SDS011;20011;51.510;9.942;2023-06-26T10:22:04;12.02;;;7.47;;
33672;SDS011;20011;51.510;9.942;2023-06-26T10:24:34;9.07;;;7.05;;
33672;SDS011;20011;51.510;9.942;2023-06-26T10:27:03;11.75;;;7.00;;
33672;SDS011;20011;51.510;9.942;2023-06-26T10:29:35;7.75;;;6.38;;
33672;SDS011;20011;51.510;9.942;2023-06-26T10:32:02;16.73;;;8.77;;
33672;SDS011;20011;51.510;9.942;2023-06-26T10:34:32;13.88;;;8.45;;
33672;SDS011;20011;51.510;9.942;2023-06-26T10:37:00;15.93;;;7.10;;
33672;SDS011;20011;51.510;9.942;2023-06-26T10:40:47;15.73;;;7.38;;
33672;SDS011;20011;51.510;9.942;2023-06-26T10:43:18;20.55;;;7.18;;
33672;SDS011;20011;51.510;9.942;2023-06-26T10:45:46;46.95;;;6.97;;
33672;SDS011;20011;51.510;9.942;2023-06-26T10:48:19;10.13;;;6.63;;
33672;SDS011;20011;51.510;9.942;2023-06-26T10:50:47;22.10;;;7.10;;
33672;SDS011;20011;51.510;9.942;2023-06-26T10:56:02;15.52;;;6.55;;
33672;SDS011;20011;51.510;9.942;2023-06-26T10:58:33;13.57;;;6.68;;
33672;SDS011;20011;51.510;9.942;2023-06-26T11:06:28;9.05;;;6.07;;
33672;SDS011;20011;51.510;9.942;2023-06-26T11:14:18;8.20;;;5.57;;
33672;SDS011;20011;51.510;9.942;2023-06-26T11:16:46;10.05;;;6.22;;
33672;SDS011;20011;51.510;9.942;2023-06-26T11:19:16;12.38;;;6.45;;
33672;SDS011;20011;51.510;9.942;2023-06-26T11:21:44;11.35;;;6.00;;
33672;SDS011;20011;51.510;9.942;2023-06-26T11:24:12;15.38;;;7.88;;
33672;SDS011;20011;51.510;9.942;2023-06-26T11:26:40;12.30;;;8.50;;
33672;SDS011;20011;51.510;9.942;2023-06-26T11:29:09;21.33;;;10.05;;
33672;SDS011;20011;51.510;9.942;2023-06-26T11:31:38;27.20;;;11.63;;
33672;SDS011;20011;51.510;9.942;2023-06-26T11:34:08;19.73;;;11.82;;
33672;SDS011;20011;51.510;9.942;2023-06-26T11:36:38;29.73;;;14.13;;
33672;SDS011;20011;51.510;9.942;2023-06-26T11:39:08;20.58;;;13.80;;
33672;SDS011;20011;51.510;9.942;2023-06-26T11:41:36;23.67;;;12.43;;
33672;SDS011;20011;51.510;9.942;2023-06-26T11:44:05;19.35;;;14.68;;
33672;SDS011;20011;51.510;9.942;2023-06-26T11:46:36;20.38;;;13.98;;
33672;SDS011;20011;51.510;9.942;2023-06-26T11:49:04;21.75;;;15.80;;
33672;SDS011;20011;51.510;9.942;2023-06-26T11:51:32;23.08;;;15.10;;
33672;SDS011;20011;51.510;9.942;2023-06-26T11:54:03;23.58;;;16.27;;
33672;SDS011;20011;51.510;9.942;2023-06-26T11:56:31;27.45;;;16.85;;
33672;SDS011;20011;51.510;9.942;2023-06-26T12:04:04;29.30;;;16.20;;
33672;SDS011;20011;51.510;9.942;2023-06-26T12:06:36;23.88;;;15.25;;
33672;SDS011;20011;51.510;9.942;2023-06-26T12:09:09;24.58;;;18.45;;
33672;SDS011;20011;51.510;9.942;2023-06-26T12:11:43;26.60;;;17.20;;
33672;SDS011;20011;51.510;9.942;2023-06-26T12:14:11;22.92;;;16.83;;
33672;SDS011;20011;51.510;9.942;2023-06-26T12:16:41;23.08;;;17.15;;
33672;SDS011;20011;51.510;9.942;2023-06-26T12:19:09;20.75;;;15.85;;
33672;SDS011;20011;51.510;9.942;2023-06-26T12:24:03;30.05;;;16.73;;
33672;SDS011;20011;51.510;9.942;2023-06-26T12:26:31;25.67;;;15.77;;
33672;SDS011;20011;51.510;9.942;2023-06-26T12:31:32;31.75;;;16.50;;
33672;SDS011;20011;51.510;9.942;2023-06-26T12:34:00;23.08;;;15.77;;
33672;SDS011;20011;51.510;9.942;2023-06-26T12:36:27;22.80;;;15.43;;
33672;SDS011;20011;51.510;9.942;2023-06-26T12:38:54;24.98;;;15.13;;
33672;SDS011;20011;51.510;9.942;2023-06-26T12:41:23;25.05;;;13.55;;
33672;SDS011;20011;51.510;9.942;2023-06-26T12:43:55;23.85;;;13.00;;
33672;SDS011;20011;51.510;9.942;2023-06-26T12:46:34;16.27;;;10.82;;
33672;SDS011;20011;51.510;9.942;2023-06-26T12:49:02;18.35;;;10.15;;
33672;SDS011;20011;51.510;9.942;2023-06-26T12:51:37;16.73;;;8.80;;
33672;SDS011;20011;51.510;9.942;2023-06-26T12:54:06;16.98;;;9.02;;
33672;SDS011;20011;51.510;9.942;2023-06-26T12:56:33;23.25;;;8.30;;
33672;SDS011;20011;51.510;9.942;2023-06-26T12:59:00;17.75;;;8.85;;
33672;SDS011;20011;51.510;9.942;2023-06-26T13:01:27;11.93;;;8.38;;
33672;SDS011;20011;51.510;9.942;2023-06-26T13:03:54;21.13;;;9.52;;
33672;SDS011;20011;51.510;9.942;2023-06-26T13:06:21;16.15;;;9.30;;
33672;SDS011;20011;51.510;9.942;2023-06-26T13:08:48;17.23;;;8.18;;
33672;SDS011;20011;51.510;9.942;2023-06-26T13:11:15;13.82;;;7.38;;
33672;SDS011;20011;51.510;9.942;2023-06-26T13:13:43;12.73;;;8.52;;
33672;SDS011;20011;51.510;9.942;2023-06-26T13:16:16;14.52;;;8.27;;
33672;SDS011;20011;51.510;9.942;2023-06-26T13:18:44;19.55;;;8.18;;
33672;SDS011;20011;51.510;9.942;2023-06-26T13:21:12;16.58;;;8.65;;
33672;SDS011;20011;51.510;9.942;2023-06-26T13:23:39;14.07;;;7.50;;
33672;SDS011;20011;51.510;9.942;2023-06-26T13:26:07;10.80;;;6.90;;
33672;SDS011;20011;51.510;9.942;2023-06-26T13:28:36;11.90;;;8.02;;
33672;SDS011;20011;51.510;9.942;2023-06-26T13:31:03;13.23;;;7.53;;
33672;SDS011;20011;51.510;9.942;2023-06-26T13:33:31;16.33;;;8.05;;
33672;SDS011;20011;51.510;9.942;2023-06-26T13:35:58;14.93;;;8.45;;
33672;SDS011;20011;51.510;9.942;2023-06-26T13:38:25;14.13;;;7.75;;
33672;SDS011;20011;51.510;9.942;2023-06-26T13:40:52;13.90;;;7.22;;
33672;SDS011;20011;51.510;9.942;2023-06-26T13:43:20;15.80;;;8.20;;
33672;SDS011;20011;51.510;9.942;2023-06-26T13:45:48;16.70;;;7.75;;
33672;SDS011;20011;51.510;9.942;2023-06-26T13:48:16;12.68;;;7.05;;
33672;SDS011;20011;51.510;9.942;2023-06-26T13:50:44;11.68;;;7.45;;
33672;SDS011;20011;51.510;9.942;2023-06-26T13:53:20;14.65;;;8.38;;
33672;SDS011;20011;51.510;9.942;2023-06-26T13:55:47;12.90;;;8.07;;
33672;SDS011;20011;51.510;9.942;2023-06-26T13:58:14;22.33;;;8.00;;
33672;SDS011;20011;51.510;9.942;2023-06-26T14:00:41;12.50;;;6.88;;
33672;SDS011;20011;51.510;9.942;2023-06-26T14:03:11;15.43;;;7.50;;
33672;SDS011;20011;51.510;9.942;2023-06-26T14:05:38;17.55;;;7.20;;
33672;SDS011;20011;51.510;9.942;2023-06-26T14:08:08;14.45;;;7.35;;
33672;SDS011;20011;51.510;9.942;2023-06-26T14:10:35;13.18;;;6.95;;
33672;SDS011;20011;51.510;9.942;2023-06-26T14:13:03;8.48;;;5.85;;
33672;SDS011;20011;51.510;9.942;2023-06-26T14:15:30;13.73;;;6.78;;
33672;SDS011;20011;51.510;9.942;2023-06-26T14:17:57;11.50;;;6.07;;
33672;SDS011;20011;51.510;9.942;2023-06-26T14:20:25;7.88;;;5.25;;
33672;SDS011;20011;51.510;9.942;2023-06-26T14:22:54;13.55;;;5.65;;
33672;SDS011;20011;51.510;9.942;2023-06-26T14:25:21;12.52;;;5.93;;
33672;SDS011;20011;51.510;9.942;2023-06-26T14:27:48;10.15;;;5.30;;
33672;SDS011;20011;51.510;9.942;2023-06-26T14:30:14;8.43;;;4.80;;
33672;SDS011;20011;51.510;9.942;2023-06-26T14:32:41;11.05;;;5.47;;
33672;SDS011;20011;51.510;9.942;2023-06-26T14:35:08;10.77;;;4.43;;
33672;SDS011;20011;51.510;9.942;2023-06-26T14:37:35;11.07;;;4.40;;
33672;SDS011;20011;51.510;9.942;2023-06-26T14:40:03;13.38;;;4.93;;
33672;SDS011;20011;51.510;9.942;2023-06-26T14:42:31;7.63;;;4.30;;
33672;SDS011;20011;51.510;9.942;2023-06-26T14:44:59;10.57;;;4.68;;
33672;SDS011;20011;51.510;9.942;2023-06-26T14:47:26;13.35;;;4.68;;
33672;SDS011;20011;51.510;9.942;2023-06-26T14:49:53;14.38;;;4.07;;
33672;SDS011;20011;51.510;9.942;2023-06-26T14:52:20;16.35;;;4.15;;
33672;SDS011;20011;51.510;9.942;2023-06-26T14:54:47;10.68;;;4.45;;
33672;SDS011;20011;51.510;9.942;2023-06-26T14:57:14;11.63;;;3.55;;
33672;SDS011;20011;51.510;9.942;2023-06-26T14:59:41;10.15;;;3.50;;
33672;SDS011;20011;51.510;9.942;2023-06-26T15:02:08;12.02;;;4.22;;
33672;SDS011;20011;51.510;9.942;2023-06-26T15:04:35;6.38;;;3.42;;
33672;SDS011;20011;51.510;9.942;2023-06-26T15:07:02;6.75;;;3.88;;
33672;SDS011;20011;51.510;9.942;2023-06-26T15:09:29;11.98;;;4.00;;
33672;SDS011;20011;51.510;9.942;2023-06-26T15:11:58;6.63;;;3.58;;
33672;SDS011;20011;51.510;9.942;2023-06-26T15:14:25;5.05;;;3.22;;
33672;SDS011;20011;51.510;9.942;2023-06-26T15:16:52;10.38;;;3.53;;
33672;SDS011;20011;51.510;9.942;2023-06-26T15:19:19;8.77;;;3.00;;
33672;SDS011;20011;51.510;9.942;2023-06-26T15:21:46;7.65;;;3.22;;
33672;SDS011;20011;51.510;9.942;2023-06-26T15:24:13;9.32;;;3.53;;
33672;SDS011;20011;51.510;9.942;2023-06-26T15:26:40;6.95;;;3.40;;
33672;SDS011;20011;51.510;9.942;2023-06-26T15:29:07;5.63;;;3.13;;